createdAt,value
2017-05-10T00:02:11.652Z,100402.64
2017-05-10T00:04:39.933Z,100404.19
2017-05-10T00:07:07.043Z,100397.32
2017-05-10T00:09:34.021Z,100393.94
2017-05-10T00:12:01.018Z,100384.89
2017-05-10T00:14:27.998Z,100381.09
2017-05-10T00:16:54.990Z,100382.73
2017-05-10T00:19:21.953Z,100378.49
2017-05-10T00:21:48.923Z,100382.44
2017-05-10T00:24:15.930Z,100376.88
2017-05-10T00:26:42.919Z,100375.28
2017-05-10T00:29:09.987Z,100372.50
2017-05-10T00:31:36.961Z,100372.35
2017-05-10T00:34:03.958Z,100372.20
2017-05-10T00:36:30.945Z,100368.43
2017-05-10T00:38:57.925Z,100363.77
2017-05-10T00:41:24.949Z,100360.81
2017-05-10T00:43:51.954Z,100361.09
2017-05-10T00:46:18.918Z,100359.19
2017-05-10T00:48:45.893Z,100350.78
2017-05-10T00:51:12.849Z,100346.13
2017-05-10T00:53:39.829Z,100347.34
2017-05-10T00:56:06.805Z,100343.86
2017-05-10T00:58:33.841Z,100342.78
2017-05-10T01:01:00.850Z,100334.40
2017-05-10T01:03:27.823Z,100335.20
2017-05-10T01:05:54.805Z,100325.84
2017-05-10T01:08:21.788Z,100326.13
2017-05-10T01:10:49.163Z,100328.19
2017-05-10T01:13:16.151Z,100322.41
2017-05-10T01:15:43.150Z,100318.20
2017-05-10T01:18:10.142Z,100319.84
2017-05-10T01:20:39.052Z,100317.73
2017-05-10T01:23:06.036Z,100310.69
2017-05-10T01:25:33.065Z,100317.58
2017-05-10T01:28:00.022Z,100319.97
2017-05-10T01:30:27.005Z,100315.23
2017-05-10T01:32:53.988Z,100306.76
2017-05-10T01:35:20.965Z,100308.13
2017-05-10T01:37:47.950Z,100306.30
2017-05-10T01:40:14.908Z,100307.33
2017-05-10T01:42:41.902Z,100311.51
2017-05-10T01:45:08.898Z,100317.14
2017-05-10T01:47:35.855Z,100310.84
2017-05-10T01:50:02.956Z,100314.93
2017-05-10T01:52:30.578Z,100307.37
2017-05-10T01:54:58.170Z,100307.46
2017-05-10T01:59:58.546Z,100308.16
2017-05-10T02:02:25.549Z,100306.13
2017-05-10T02:04:52.509Z,100303.39
2017-05-10T02:07:19.507Z,100295.59
2017-05-10T02:09:46.458Z,100301.22
2017-05-10T02:12:14.017Z,100293.75
2017-05-10T02:14:40.978Z,100295.80
2017-05-10T02:17:07.935Z,100293.48
2017-05-10T02:19:34.937Z,100287.80
2017-05-10T02:22:01.894Z,100290.80
2017-05-10T02:24:28.870Z,100284.17
2017-05-10T02:26:55.825Z,100287.41
2017-05-10T02:29:22.789Z,100280.36
2017-05-10T02:31:49.760Z,100285.47
2017-05-10T02:34:16.733Z,100273.44
2017-05-10T02:36:43.710Z,100268.94
2017-05-10T02:39:10.697Z,100272.93
2017-05-10T02:41:37.670Z,100270.30
2017-05-10T02:44:04.638Z,100258.15
2017-05-10T02:46:31.597Z,100256.45
2017-05-10T02:48:58.589Z,100256.88
2017-05-10T02:51:25.545Z,100247.96
2017-05-10T02:53:52.572Z,100253.49
2017-05-10T02:56:20.580Z,100256.82
2017-05-10T02:58:47.549Z,100254.70
2017-05-10T03:01:14.814Z,100248.93
2017-05-10T03:03:41.773Z,100244.09
2017-05-10T03:06:08.737Z,100248.91
2017-05-10T03:08:35.717Z,100246.03
2017-05-10T03:11:02.687Z,100245.38
2017-05-10T03:13:29.682Z,100241.98
2017-05-10T03:15:56.643Z,100241.75
2017-05-10T03:18:23.613Z,100243.80
2017-05-10T03:20:50.578Z,100239.72
2017-05-10T03:23:17.557Z,100228.15
2017-05-10T03:25:44.572Z,100231.75
2017-05-10T03:28:11.558Z,100229.39
2017-05-10T03:30:38.517Z,100228.42
2017-05-10T03:33:05.481Z,100220.12
2017-05-10T03:35:32.455Z,100220.90
2017-05-10T03:37:59.437Z,100228.06
2017-05-10T03:40:26.405Z,100233.89
2017-05-10T03:42:53.372Z,100229.42
2017-05-10T03:45:20.369Z,100228.93
2017-05-10T03:47:47.363Z,100218.45
2017-05-10T03:50:14.347Z,100218.39
2017-05-10T03:52:41.329Z,100215.52
2017-05-10T03:55:08.281Z,100223.09
2017-05-10T03:57:35.265Z,100221.19
2017-05-10T04:00:02.271Z,100220.52
2017-05-10T04:02:29.222Z,100225.38
2017-05-10T04:04:56.227Z,100222.84
2017-05-10T04:07:23.203Z,100223.20
2017-05-10T04:09:50.233Z,100220.60
2017-05-10T04:12:17.223Z,100224.77
2017-05-10T04:14:44.185Z,100222.14
2017-05-10T04:17:11.154Z,100222.23
2017-05-10T04:19:38.171Z,100224.86
2017-05-10T04:22:05.159Z,100222.23
2017-05-10T04:24:32.169Z,100218.16
2017-05-10T04:26:59.141Z,100227.58
2017-05-10T04:29:26.162Z,100221.72
2017-05-10T04:31:53.191Z,100226.13
2017-05-10T04:34:20.164Z,100221.53
2017-05-10T04:36:47.205Z,100224.89
2017-05-10T04:39:14.261Z,100223.69
2017-05-10T04:41:54.481Z,100220.70
2017-05-10T04:44:21.465Z,100223.91
2017-05-10T04:46:48.489Z,100215.36
2017-05-10T04:49:15.474Z,100221.80
2017-05-10T04:51:42.447Z,100216.09
2017-05-10T04:54:10.347Z,100221.08
2017-05-10T04:56:37.301Z,100217.13
2017-05-10T04:59:04.258Z,100218.45
2017-05-10T05:01:31.394Z,100212.98
2017-05-10T05:03:58.406Z,100212.59
2017-05-10T05:06:25.514Z,100207.22
2017-05-10T05:08:52.474Z,100212.63
2017-05-10T05:11:19.498Z,100202.11
2017-05-10T05:13:46.521Z,100207.94
2017-05-10T05:16:14.109Z,100206.87
2017-05-10T05:18:41.133Z,100207.66
2017-05-10T05:21:08.519Z,100204.29
2017-05-10T05:23:35.800Z,100207.27
2017-05-10T05:26:02.846Z,100204.76
2017-05-10T05:28:29.862Z,100201.45
2017-05-10T05:30:59.869Z,100206.48
2017-05-10T05:33:26.829Z,100204.83
2017-05-10T05:35:53.818Z,100208.84
2017-05-10T05:38:20.821Z,100205.01
2017-05-10T05:40:47.810Z,100208.03
2017-05-10T05:43:14.871Z,100209.58
2017-05-10T05:45:41.857Z,100209.31
2017-05-10T05:48:08.805Z,100212.23
2017-05-10T05:50:35.764Z,100209.36
2017-05-10T05:53:02.701Z,100205.52
2017-05-10T05:55:29.698Z,100209.28
2017-05-10T05:57:56.667Z,100210.37
2017-05-10T06:00:23.632Z,100210.13
2017-05-10T06:02:50.597Z,100210.70
2017-05-10T06:05:17.541Z,100204.16
2017-05-10T06:07:44.534Z,100200.53
2017-05-10T06:10:11.481Z,100194.84
2017-05-10T06:12:38.449Z,100200.34
2017-05-10T06:15:05.443Z,100196.38
2017-05-10T06:17:32.414Z,100192.56
2017-05-10T06:20:00.397Z,100183.16
2017-05-10T06:22:27.349Z,100185.95
2017-05-10T06:24:54.297Z,100180.72
2017-05-10T06:27:21.269Z,100185.41
2017-05-10T06:29:48.253Z,100188.27
2017-05-10T06:32:15.233Z,100186.12
2017-05-10T06:34:42.187Z,100187.09
2017-05-10T06:37:09.141Z,100180.84
2017-05-10T06:39:36.107Z,100180.97
2017-05-10T06:42:03.081Z,100183.66
2017-05-10T06:44:30.064Z,100184.10
2017-05-10T06:46:57.042Z,100184.58
2017-05-10T06:49:23.988Z,100186.80
2017-05-10T06:51:50.954Z,100187.77
2017-05-10T06:54:17.903Z,100180.04
2017-05-10T06:56:44.869Z,100175.53
2017-05-10T06:59:11.809Z,100175.48
2017-05-10T07:01:38.757Z,100169.18
2017-05-10T07:04:05.721Z,100170.69
2017-05-10T07:06:32.673Z,100171.31
2017-05-10T07:08:59.625Z,100167.35
2017-05-10T07:11:26.567Z,100166.61
2017-05-10T07:13:53.653Z,100167.27
2017-05-10T07:16:20.625Z,100170.98
2017-05-10T07:18:47.631Z,100162.39
2017-05-10T07:21:14.638Z,100167.01
2017-05-10T07:23:41.583Z,100163.42
2017-05-10T07:26:08.521Z,100160.30
2017-05-10T07:28:35.485Z,100162.50
2017-05-10T07:31:02.425Z,100166.09
2017-05-10T07:33:29.397Z,100165.87
2017-05-10T07:35:56.357Z,100158.39
2017-05-10T07:38:23.329Z,100157.88
2017-05-10T07:40:50.301Z,100155.44
2017-05-10T07:43:17.241Z,100159.00
2017-05-10T07:45:44.214Z,100152.37
2017-05-10T07:48:11.177Z,100152.03
2017-05-10T07:50:38.163Z,100154.01
2017-05-10T07:53:05.322Z,100148.81
2017-05-10T07:55:32.312Z,100149.30
2017-05-10T07:57:59.416Z,100148.00
2017-05-10T08:00:26.397Z,100136.99
2017-05-10T08:02:53.358Z,100133.36
2017-05-10T08:05:20.421Z,100136.07
2017-05-10T08:07:47.415Z,100133.80
2017-05-10T08:10:32.498Z,100127.12
2017-05-10T08:12:59.461Z,100129.47
2017-05-10T08:15:26.434Z,100124.22
2017-05-10T08:17:53.441Z,100124.76
2017-05-10T08:20:20.396Z,100119.61
2017-05-10T08:22:47.383Z,100114.87
2017-05-10T08:25:14.368Z,100110.86
2017-05-10T08:27:41.332Z,100109.59
2017-05-10T08:30:08.314Z,100111.48
2017-05-10T08:32:35.286Z,100097.30
2017-05-10T08:35:02.266Z,100100.12
2017-05-10T08:37:29.266Z,100102.53
2017-05-10T08:39:56.251Z,100102.48
2017-05-10T08:42:23.226Z,100100.56
2017-05-10T08:44:50.338Z,100097.08
2017-05-10T08:47:17.320Z,100093.61
2017-05-10T08:49:44.273Z,100083.34
2017-05-10T08:52:12.189Z,100082.00
2017-05-10T08:54:39.174Z,100077.19
2017-05-10T08:57:06.146Z,100078.96
2017-05-10T08:59:33.124Z,100082.50
2017-05-10T09:02:00.093Z,100074.52
2017-05-10T09:04:27.041Z,100071.19
2017-05-10T09:06:53.989Z,100067.50
2017-05-10T09:09:20.970Z,100067.98
2017-05-10T09:11:47.921Z,100065.07
2017-05-10T09:14:14.861Z,100064.42
2017-05-10T09:16:41.816Z,100054.94
2017-05-10T09:19:08.770Z,100055.66
2017-05-10T09:21:35.741Z,100054.95
2017-05-10T09:24:02.690Z,100049.98
2017-05-10T09:26:29.645Z,100046.75
2017-05-10T09:28:56.606Z,100041.94
2017-05-10T09:31:23.557Z,100033.84
2017-05-10T09:33:50.525Z,100041.39
2017-05-10T09:36:17.477Z,100033.92
2017-05-10T09:38:44.417Z,100040.87
2017-05-10T09:41:11.389Z,100032.08
2017-05-10T09:43:38.338Z,100022.14
2017-05-10T09:46:05.311Z,100027.66
2017-05-10T09:48:32.257Z,100014.02
2017-05-10T09:50:59.210Z,100021.34
2017-05-10T09:53:26.173Z,100017.67
2017-05-10T09:55:53.120Z,100011.25
2017-05-10T09:58:20.097Z,100011.61
2017-05-10T10:00:47.042Z,100007.02
2017-05-10T10:03:16.977Z,99998.24
2017-05-10T10:05:43.951Z,99995.59
2017-05-10T10:08:10.925Z,100000.28
2017-05-10T10:10:37.898Z,99997.92
2017-05-10T10:13:04.838Z,99991.00
2017-05-10T10:15:31.784Z,99989.48
2017-05-10T10:17:58.749Z,99993.94
2017-05-10T10:20:25.693Z,99986.82
2017-05-10T10:22:52.672Z,99989.28
2017-05-10T10:25:19.625Z,99982.16
2017-05-10T10:27:46.580Z,99985.45
2017-05-10T10:30:13.539Z,99979.17
2017-05-10T10:32:40.505Z,99966.70
2017-05-10T10:35:07.479Z,99967.41
2017-05-10T10:37:34.439Z,99963.81
2017-05-10T10:40:01.390Z,99967.47
2017-05-10T10:42:28.362Z,99967.47
2017-05-10T10:44:55.318Z,99962.00
2017-05-10T10:47:22.306Z,99952.66
2017-05-10T10:49:49.257Z,99965.59
2017-05-10T10:52:16.199Z,99952.17
2017-05-10T10:54:43.149Z,99949.06
2017-05-10T10:57:10.101Z,99942.02
2017-05-10T10:59:38.981Z,99939.30
2017-05-10T11:02:05.929Z,99932.70
2017-05-10T11:04:32.873Z,99934.05
2017-05-10T11:06:59.837Z,99924.89
2017-05-10T11:09:26.777Z,99926.39
2017-05-10T11:11:53.744Z,99925.91
2017-05-10T11:14:20.689Z,99926.16
2017-05-10T11:16:47.633Z,99927.09
2017-05-10T11:19:14.589Z,99921.16
2017-05-10T11:21:41.536Z,99921.89
2017-05-10T11:24:08.503Z,99909.13
2017-05-10T11:26:35.446Z,99913.78
2017-05-10T11:29:02.389Z,99913.48
2017-05-10T11:31:29.352Z,99913.70
2017-05-10T11:33:56.298Z,99908.36
2017-05-10T11:36:23.297Z,99899.28
2017-05-10T11:38:50.241Z,99896.92
2017-05-10T11:41:17.186Z,99893.63
2017-05-10T11:43:44.144Z,99888.41
2017-05-10T11:46:11.085Z,99896.34
2017-05-10T11:48:38.045Z,99890.05
2017-05-10T11:51:04.989Z,99890.31
2017-05-10T11:53:31.925Z,99893.48
2017-05-10T11:55:58.902Z,99890.19
2017-05-10T11:58:25.850Z,99888.73
2017-05-10T12:00:52.830Z,99880.43
2017-05-10T12:03:19.785Z,99879.06
2017-05-10T12:05:46.721Z,99876.24
2017-05-10T12:08:13.681Z,99875.68
2017-05-10T12:10:46.858Z,99869.80
2017-05-10T12:13:13.822Z,99860.71
2017-05-10T12:15:40.763Z,99855.70
2017-05-10T12:18:07.710Z,99859.28
2017-05-10T12:20:34.673Z,99851.50
2017-05-10T12:23:01.631Z,99853.48
2017-05-10T12:25:28.590Z,99854.24
2017-05-10T12:27:55.539Z,99844.97
2017-05-10T12:30:22.481Z,99839.31
2017-05-10T12:32:49.466Z,99837.32
2017-05-10T12:35:16.409Z,99830.00
2017-05-10T12:37:43.362Z,99824.02
2017-05-10T12:40:10.309Z,99820.05
2017-05-10T12:42:37.257Z,99815.33
2017-05-10T12:45:04.209Z,99816.62
2017-05-10T12:47:31.162Z,99806.01
2017-05-10T12:49:58.117Z,99795.81
2017-05-10T12:52:25.053Z,99794.42
2017-05-10T12:54:51.994Z,99797.33
2017-05-10T12:57:18.962Z,99790.45
2017-05-10T12:59:45.913Z,99786.56
2017-05-10T13:02:12.884Z,99774.63
2017-05-10T13:04:39.862Z,99783.39
2017-05-10T13:07:06.802Z,99777.24
2017-05-10T13:09:33.822Z,99777.24
2017-05-10T13:12:00.766Z,99773.39
2017-05-10T13:14:27.709Z,99772.30
2017-05-10T13:16:54.668Z,99766.55
2017-05-10T13:19:21.625Z,99772.55
2017-05-10T13:21:48.577Z,99767.01
2017-05-10T13:24:15.558Z,99761.20
2017-05-10T13:26:42.556Z,99766.18
2017-05-10T13:29:09.533Z,99756.14
2017-05-10T13:31:50.899Z,99738.82
2017-05-10T13:34:17.861Z,99744.82
2017-05-10T13:36:44.802Z,99749.42
2017-05-10T13:39:11.978Z,99743.89
2017-05-10T13:41:38.969Z,99738.33
2017-05-10T13:44:05.929Z,99731.39
2017-05-10T13:46:32.886Z,99732.66
2017-05-10T13:49:01.810Z,99728.03
2017-05-10T13:51:28.814Z,99727.41
2017-05-10T13:53:55.769Z,99727.02
2017-05-10T13:56:22.741Z,99719.57
2017-05-10T13:58:49.685Z,99722.21
2017-05-10T14:01:16.649Z,99726.15
2017-05-10T14:03:43.605Z,99720.27
2017-05-10T14:06:10.588Z,99713.33
2017-05-10T14:08:37.547Z,99711.25
2017-05-10T14:11:04.495Z,99698.20
2017-05-10T14:13:31.473Z,99702.47
2017-05-10T14:15:58.417Z,99699.88
2017-05-10T14:18:25.361Z,99690.03
2017-05-10T14:20:52.511Z,99687.91
2017-05-10T14:23:19.489Z,99689.83
2017-05-10T14:25:46.467Z,99691.38
2017-05-10T14:28:13.413Z,99690.59
2017-05-10T14:33:26.175Z,99682.91
2017-05-10T14:35:53.150Z,99670.73
2017-05-10T14:38:20.089Z,99665.11
2017-05-10T14:40:47.040Z,99665.58
2017-05-10T14:43:14.005Z,99663.96
2017-05-10T14:45:40.971Z,99658.11
2017-05-10T14:48:08.017Z,99655.78
2017-05-10T14:50:34.969Z,99657.92
2017-05-10T14:53:01.914Z,99649.28
2017-05-10T14:55:29.801Z,99656.31
2017-05-10T14:57:56.741Z,99650.31
2017-05-10T15:00:23.701Z,99640.27
2017-05-10T15:02:50.653Z,99634.47
2017-05-10T15:05:17.597Z,99641.00
2017-05-10T15:10:30.708Z,99641.52
2017-05-10T15:12:57.685Z,99632.88
2017-05-10T15:15:24.635Z,99629.59
2017-05-10T15:17:51.568Z,99628.24
2017-05-10T15:20:18.594Z,99620.84
2017-05-10T15:25:25.006Z,99621.00
2017-05-10T15:27:52.103Z,99619.08
2017-05-10T15:30:20.201Z,99611.42
2017-05-10T15:32:47.170Z,99609.83
2017-05-10T15:35:14.125Z,99609.78
2017-05-10T15:37:41.089Z,99605.18
2017-05-10T15:40:08.093Z,99599.48
2017-05-10T15:42:47.797Z,99605.53
2017-05-10T15:45:14.745Z,99601.49
2017-05-10T15:47:41.692Z,99603.05
2017-05-10T15:50:08.681Z,99602.52
2017-05-10T15:52:35.617Z,99593.12
2017-05-10T15:55:02.580Z,99603.77
2017-05-10T15:57:29.521Z,99584.16
2017-05-10T15:59:56.466Z,99588.63
2017-05-10T16:02:30.074Z,99582.14
2017-05-10T16:04:57.017Z,99580.56
2017-05-10T16:07:23.989Z,99571.28
2017-05-10T16:09:50.933Z,99578.72
2017-05-10T16:12:17.876Z,99574.01
2017-05-10T16:14:44.829Z,99577.94
2017-05-10T16:17:11.770Z,99573.56
2017-05-10T16:19:38.735Z,99568.59
2017-05-10T16:22:05.686Z,99567.95
2017-05-10T16:24:32.631Z,99569.42
2017-05-10T16:27:07.221Z,99565.95
2017-05-10T16:29:34.348Z,99562.63
2017-05-10T16:32:01.550Z,99562.41
2017-05-10T16:34:29.554Z,99553.47
2017-05-10T16:36:56.606Z,99556.46
2017-05-10T16:39:23.575Z,99550.66
2017-05-10T16:41:50.558Z,99546.58
2017-05-10T16:44:17.619Z,99545.38
2017-05-10T16:46:44.558Z,99540.81
2017-05-10T16:49:11.501Z,99541.16
2017-05-10T16:51:38.458Z,99539.80
2017-05-10T16:54:05.538Z,99539.98
2017-05-10T16:56:32.505Z,99538.06
2017-05-10T16:58:59.445Z,99543.59
2017-05-10T17:01:26.386Z,99533.08
2017-05-10T17:03:58.177Z,99531.38
2017-05-10T17:06:25.121Z,99520.14
2017-05-10T17:08:52.091Z,99523.56
2017-05-10T17:11:19.051Z,99523.52
2017-05-10T17:13:46.040Z,99519.67
2017-05-10T17:16:13.113Z,99518.11
2017-05-10T17:18:41.205Z,99508.16
2017-05-10T17:21:08.507Z,99513.16
2017-05-10T17:23:35.797Z,99509.87
2017-05-10T17:26:03.055Z,99511.13
2017-05-10T17:28:30.351Z,99507.92
2017-05-10T17:30:57.654Z,99502.92
2017-05-10T17:33:26.941Z,99506.27
2017-05-10T17:35:54.202Z,99509.76
2017-05-10T17:38:21.473Z,99506.84
2017-05-10T17:40:48.793Z,99508.81
2017-05-10T17:43:16.086Z,99498.36
2017-05-10T17:45:43.419Z,99507.09
2017-05-10T17:48:20.662Z,99500.80
2017-05-10T17:50:48.000Z,99504.98
2017-05-10T17:53:15.298Z,99499.14
2017-05-10T17:55:42.549Z,99502.05
2017-05-10T17:58:09.881Z,99500.77
2017-05-10T18:00:37.160Z,99495.88
2017-05-10T18:03:04.505Z,99490.55
2017-05-10T18:05:31.776Z,99494.81
2017-05-10T18:07:59.057Z,99499.89
2017-05-10T18:10:26.365Z,99496.92
2017-05-10T18:12:53.668Z,99493.11
2017-05-10T18:15:21.000Z,99492.95
2017-05-10T18:17:48.645Z,99493.28
2017-05-10T18:20:15.918Z,99491.51
2017-05-10T18:22:43.205Z,99496.55
2017-05-10T18:25:12.477Z,99488.55
2017-05-10T18:27:40.619Z,99490.40
2017-05-10T18:30:07.904Z,99491.55
2017-05-10T18:32:35.180Z,99493.23
2017-05-10T18:35:02.448Z,99485.77
2017-05-10T18:37:30.791Z,99493.83
2017-05-10T18:39:58.147Z,99485.25
2017-05-10T18:42:25.433Z,99487.86
2017-05-10T18:44:52.955Z,99486.88
2017-05-10T18:47:20.263Z,99489.64
2017-05-10T18:49:47.541Z,99492.81
2017-05-10T18:52:14.920Z,99478.82
2017-05-10T18:54:42.204Z,99479.36
2017-05-10T18:57:09.477Z,99482.23
2017-05-10T18:59:36.756Z,99482.90
2017-05-10T19:02:04.034Z,99477.19
2017-05-10T19:04:31.377Z,99481.14
2017-05-10T19:06:58.677Z,99482.07
2017-05-10T19:09:25.954Z,99474.42
2017-05-10T19:11:54.191Z,99481.41
2017-05-10T19:14:21.186Z,99475.01
2017-05-10T19:16:48.150Z,99476.47
2017-05-10T19:19:15.094Z,99477.66
2017-05-10T19:21:42.038Z,99474.00
2017-05-10T19:24:09.004Z,99477.91
2017-05-10T19:26:35.953Z,99472.33
2017-05-10T19:29:02.953Z,99476.68
2017-05-10T19:31:29.919Z,99477.82
2017-05-10T19:33:58.219Z,99475.27
2017-05-10T19:36:25.198Z,99490.06
2017-05-10T19:38:52.145Z,99482.53
2017-05-10T19:41:21.065Z,99478.72
2017-05-10T19:43:48.018Z,99486.64
2017-05-10T19:46:15.014Z,99488.08
2017-05-10T19:48:42.042Z,99495.95
2017-05-10T19:51:09.110Z,99492.83
2017-05-10T19:53:37.562Z,99493.42
2017-05-10T19:56:04.521Z,99494.31
2017-05-10T19:58:34.687Z,99498.29
2017-05-10T20:01:01.653Z,99491.03
2017-05-10T20:03:28.625Z,99487.48
2017-05-10T20:05:55.629Z,99487.61
2017-05-10T20:08:22.585Z,99485.27
2017-05-10T20:10:49.537Z,99486.84
2017-05-10T20:13:16.517Z,99480.70
2017-05-10T20:15:44.360Z,99489.54
2017-05-10T20:18:30.095Z,99487.81
2017-05-10T20:20:57.053Z,99485.22
2017-05-10T20:23:24.084Z,99484.03
2017-05-10T20:25:51.064Z,99476.34
2017-05-10T20:28:18.043Z,99478.88
2017-05-10T20:30:45.037Z,99481.22
2017-05-10T20:33:11.993Z,99471.57
2017-05-10T20:35:38.989Z,99468.95
2017-05-10T20:38:05.949Z,99477.20
2017-05-10T20:40:32.934Z,99478.46
2017-05-10T20:48:36.703Z,99477.09
2017-05-10T20:51:03.691Z,99479.27
2017-05-10T20:53:30.653Z,99480.48
2017-05-10T20:55:57.641Z,99484.73
2017-05-10T20:58:24.671Z,99479.09
2017-05-10T21:00:51.653Z,99481.59
2017-05-10T21:03:18.602Z,99478.84
2017-05-10T21:05:45.614Z,99473.63
2017-05-10T21:08:12.690Z,99478.59
2017-05-10T21:10:39.714Z,99484.41
2017-05-10T21:13:06.719Z,99486.44
2017-05-10T21:15:33.714Z,99481.09
2017-05-10T21:18:00.702Z,99487.27
2017-05-10T21:20:27.715Z,99485.89
2017-05-10T21:22:54.768Z,99481.38
2017-05-10T21:25:21.774Z,99473.44
2017-05-10T21:27:48.746Z,99475.64
2017-05-10T21:30:15.738Z,99480.73
2017-05-10T21:32:42.766Z,99486.92
2017-05-10T21:35:09.757Z,99477.34
2017-05-10T21:37:36.760Z,99488.60
2017-05-10T21:40:03.802Z,99487.02
2017-05-10T21:42:30.760Z,99490.58
2017-05-10T21:44:57.795Z,99490.47
2017-05-10T21:47:24.806Z,99492.66
2017-05-10T21:49:51.851Z,99487.88
2017-05-10T21:52:18.822Z,99492.19
2017-05-10T21:54:45.854Z,99489.19
2017-05-10T21:57:12.835Z,99487.59
2017-05-10T21:59:39.810Z,99487.33
2017-05-10T22:02:06.781Z,99484.72
2017-05-10T22:04:33.741Z,99485.87
2017-05-10T22:07:00.701Z,99485.19
2017-05-10T22:09:27.677Z,99498.10
2017-05-10T22:11:54.637Z,99492.92
2017-05-10T22:14:21.618Z,99493.50
2017-05-10T22:16:48.565Z,99484.22
2017-05-10T22:19:15.539Z,99483.95
2017-05-10T22:21:42.552Z,99485.48
2017-05-10T22:24:09.525Z,99494.83
2017-05-10T22:26:36.506Z,99492.55
2017-05-10T22:29:03.505Z,99485.02
2017-05-10T22:31:30.462Z,99480.68
2017-05-10T22:33:57.464Z,99492.09
2017-05-10T22:36:24.441Z,99491.94
2017-05-10T22:38:51.414Z,99486.11
2017-05-10T22:41:18.450Z,99485.73
2017-05-10T22:43:45.464Z,99478.50
2017-05-10T22:46:12.421Z,99486.37
2017-05-10T22:48:39.408Z,99481.03
2017-05-10T22:51:06.405Z,99486.55
2017-05-10T22:53:33.402Z,99487.14
2017-05-10T22:56:00.382Z,99480.87
2017-05-10T22:58:27.360Z,99483.11
2017-05-10T23:00:54.337Z,99480.52
2017-05-10T23:03:21.346Z,99477.84
2017-05-10T23:05:48.317Z,99471.03
2017-05-10T23:08:15.285Z,99475.48
2017-05-10T23:10:42.275Z,99479.23
2017-05-10T23:13:09.240Z,99477.25
2017-05-10T23:15:37.901Z,99474.84
2017-05-10T23:18:04.921Z,99473.81
2017-05-10T23:20:31.881Z,99460.48
2017-05-10T23:22:58.850Z,99469.86
2017-05-10T23:25:25.826Z,99470.53
2017-05-10T23:27:52.805Z,99468.13
2017-05-10T23:30:19.781Z,99461.94
2017-05-10T23:32:46.741Z,99464.48
2017-05-10T23:35:13.685Z,99465.23
2017-05-10T23:37:40.661Z,99460.52
2017-05-10T23:40:07.671Z,99465.30
2017-05-10T23:42:34.642Z,99453.73
2017-05-10T23:45:01.589Z,99456.70
2017-05-10T23:47:28.546Z,99461.44
2017-05-10T23:49:55.517Z,99452.52
2017-05-10T23:52:22.485Z,99451.78
2017-05-10T23:54:49.510Z,99448.33
2017-05-10T23:57:16.537Z,99453.48
2017-05-10T23:59:43.500Z,99448.24
